Time;durP1;ratioP1;P1;durP2;ratioP2;P2;SDS_P1;SDS_P2;PMS_P1;PMS_P2;Temp;Humidity;BMP_temperature;BMP_pressure;BME280_temperature;BME280_humidity;BME280_pressure;Samples;Min_cycle;Max_cycle;Signal;HPM_P1;HPM_P2
2021/06/08 00:00:22;;;;;;;9.60;5.27;;;;;;;;;;4996118;28;20097;-59
2021/06/08 00:02:49;;;;;;;12.43;4.30;;;;;;;;;;4996107;28;20485;-59
2021/06/08 00:05:18;;;;;;;7.43;4.20;;;;;;;;;;4996094;28;20533;-59
2021/06/08 00:07:45;;;;;;;13.60;3.87;;;;;;;;;;4996021;28;20496;-59
2021/06/08 00:10:13;;;;;;;18.00;4.93;;;;;;;;;;4995964;28;20493;-58
2021/06/08 00:12:54;;;;;;;7.80;4.43;;;;;;;;;;4995915;28;20537;-58
2021/06/08 00:15:25;;;;;;;11.10;4.43;;;;;;;;;;4995728;28;20480;-58
2021/06/08 00:17:59;;;;;;;10.10;4.40;;;;;;;;;;4993932;28;20449;-57
2021/06/08 00:20:50;;;;;;;19.17;4.47;;;;;;;;;;4995025;28;20031;-58
2021/06/08 00:23:21;;;;;;;7.47;3.47;;;;;;;;;;4995401;28;20541;-58
2021/06/08 00:25:51;;;;;;;7.50;4.23;;;;;;;;;;4995273;28;20493;-58
2021/06/08 00:28:31;;;;;;;14.17;6.00;;;;;;;;;;4995686;28;20413;-57
2021/06/08 00:31:02;;;;;;;9.37;5.03;;;;;;;;;;4992974;28;20050;-58
2021/06/08 00:33:29;;;;;;;8.73;4.00;;;;;;;;;;4994506;28;20486;-57
2021/06/08 00:35:59;;;;;;;11.50;4.97;;;;;;;;;;4995445;28;20474;-57
2021/06/08 00:38:41;;;;;;;6.37;3.63;;;;;;;;;;4993262;28;20042;-58
2021/06/08 00:41:08;;;;;;;23.07;4.30;;;;;;;;;;4995215;28;20536;-57
2021/06/08 00:46:42;;;;;;;8.17;3.73;;;;;;;;;;4994886;28;20033;-58
2021/06/08 00:49:15;;;;;;;10.00;3.90;;;;;;;;;;4995692;28;20061;-57
2021/06/08 00:51:55;;;;;;;6.87;3.60;;;;;;;;;;4991611;28;20485;-57
2021/06/08 00:54:26;;;;;;;9.17;3.90;;;;;;;;;;4994994;28;20473;-57
2021/06/08 00:57:11;;;;;;;5.40;3.13;;;;;;;;;;4993287;28;20440;-57
2021/06/08 00:59:53;;;;;;;5.05;2.72;;;;;;;;;;4994011;28;20487;-57
2021/06/08 01:02:34;;;;;;;5.73;3.40;;;;;;;;;;4994506;28;20501;-57
2021/06/08 01:05:11;;;;;;;6.33;3.17;;;;;;;;;;4994727;28;20525;-57
2021/06/08 01:07:45;;;;;;;12.20;3.30;;;;;;;;;;4994788;28;20053;-57
2021/06/08 01:10:18;;;;;;;8.10;4.00;;;;;;;;;;4994752;28;20034;-57
2021/06/08 01:12:46;;;;;;;5.93;2.97;;;;;;;;;;4994566;28;20042;-57
2021/06/08 01:15:22;;;;;;;5.97;3.17;;;;;;;;;;4994832;28;20473;-58
2021/06/08 01:18:00;;;;;;;7.67;3.37;;;;;;;;;;4976917;28;20050;-57
2021/06/08 01:20:30;;;;;;;7.00;3.60;;;;;;;;;;4977259;28;20049;-58
2021/06/08 01:22:57;;;;;;;6.90;3.73;;;;;;;;;;4994850;28;20023;-57
2021/06/08 01:25:28;;;;;;;8.93;4.13;;;;;;;;;;4994614;28;20551;-58
2021/06/08 01:27:55;;;;;;;7.03;4.23;;;;;;;;;;4977081;28;20366;-57
2021/06/08 01:30:41;;;;;;;;;;;;;;;;;;;;;
2021/06/08 01:33:23;;;;;;;6.13;3.70;;;;;;;;;;4966867;28;20046;-57
2021/06/08 01:35:51;;;;;;;6.37;3.37;;;;;;;;;;4994484;28;20513;-58
2021/06/08 01:38:19;;;;;;;7.80;3.70;;;;;;;;;;4993411;28;20501;-58
2021/06/08 01:40:50;;;;;;;7.83;3.67;;;;;;;;;;4975981;28;20046;-58
2021/06/08 01:43:19;;;;;;;5.67;3.20;;;;;;;;;;4994145;28;20485;-57
2021/06/08 01:45:51;;;;;;;5.80;3.03;;;;;;;;;;4994275;28;20532;-57
2021/06/08 01:48:19;;;;;;;8.57;3.63;;;;;;;;;;4996050;28;20055;-58
2021/06/08 01:50:51;;;;;;;10.80;3.70;;;;;;;;;;4994159;28;20480;-57
2021/06/08 01:53:24;;;;;;;10.57;4.10;;;;;;;;;;4994461;28;20022;-57
2021/06/08 01:55:52;;;;;;;8.37;4.07;;;;;;;;;;4993966;28;20479;-57
2021/06/08 01:58:37;;;;;;;7.67;4.07;;;;;;;;;;4993383;28;20494;-58
2021/06/08 02:01:26;;;;;;;6.03;3.25;;;;;;;;;;4993201;28;20121;-58
2021/06/08 02:03:56;;;;;;;6.73;3.17;;;;;;;;;;4993766;28;20473;-57
2021/06/08 02:06:33;;;;;;;4.03;2.70;;;;;;;;;;4993992;28;20549;-57
2021/06/08 02:09:08;;;;;;;4.63;2.87;;;;;;;;;;4993702;28;20548;-57
2021/06/08 02:11:41;;;;;;;4.47;2.63;;;;;;;;;;4993818;28;20489;-58
2021/06/08 02:14:22;;;;;;;12.33;3.93;;;;;;;;;;4993598;28;20477;-57
2021/06/08 02:17:15;;;;;;;8.37;3.43;;;;;;;;;;4993898;28;20580;-57
2021/06/08 02:19:45;;;;;;;6.03;3.33;;;;;;;;;;4957029;28;20493;-57
2021/06/08 02:22:20;;;;;;;6.73;3.10;;;;;;;;;;4993493;28;20474;-57
2021/06/08 02:24:53;;;;;;;5.53;3.13;;;;;;;;;;4993260;28;20549;-57
2021/06/08 02:27:32;;;;;;;11.67;3.43;;;;;;;;;;4991579;28;20030;-57
2021/06/08 02:30:00;;;;;;;6.50;3.50;;;;;;;;;;4993454;28;20516;-57
2021/06/08 02:32:30;;;;;;;6.27;3.60;;;;;;;;;;4992438;28;20126;-57
2021/06/08 02:34:59;;;;;;;8.57;3.50;;;;;;;;;;4993307;28;20026;-57
2021/06/08 02:37:26;;;;;;;8.10;3.67;;;;;;;;;;4976414;28;20038;-57
2021/06/08 02:39:54;;;;;;;9.77;3.70;;;;;;;;;;4993552;28;20462;-57
2021/06/08 02:42:22;;;;;;;6.13;3.07;;;;;;;;;;4993396;28;20477;-57
2021/06/08 02:44:50;;;;;;;8.07;3.23;;;;;;;;;;4992376;28;20547;-57
2021/06/08 02:47:18;;;;;;;6.47;2.97;;;;;;;;;;4993287;28;20027;-57
2021/06/08 02:49:47;;;;;;;8.07;3.43;;;;;;;;;;4994803;28;20540;-58
2021/06/08 02:52:16;;;;;;;4.73;3.03;;;;;;;;;;4993138;28;20486;-57
2021/06/08 02:54:44;;;;;;;5.33;3.20;;;;;;;;;;4993254;28;20089;-57
2021/06/08 02:57:11;;;;;;;7.03;2.77;;;;;;;;;;4993265;28;20542;-57
2021/06/08 02:59:39;;;;;;;4.93;3.07;;;;;;;;;;4993127;28;20505;-57
2021/06/08 03:02:11;;;;;;;6.87;3.77;;;;;;;;;;4993202;28;20501;-57
2021/06/08 03:04:58;;;;;;;4.50;3.20;;;;;;;;;;4993350;28;20037;-57
2021/06/08 03:07:27;;;;;;;6.73;3.17;;;;;;;;;;4993076;28;20026;-57
2021/06/08 03:09:58;;;;;;;8.97;3.77;;;;;;;;;;4993641;28;20486;-57
2021/06/08 03:12:33;;;;;;;6.40;3.13;;;;;;;;;;4997457;28;20500;-57
2021/06/08 03:15:02;;;;;;;4.43;2.97;;;;;;;;;;4997207;28;20037;-57
2021/06/08 03:17:31;;;;;;;5.53;3.50;;;;;;;;;;4996862;28;20507;-57
2021/06/08 03:20:00;;;;;;;10.90;3.90;;;;;;;;;;4979557;28;20473;-57
2021/06/08 03:22:29;;;;;;;10.07;3.30;;;;;;;;;;4995911;28;20038;-57
2021/06/08 03:24:59;;;;;;;7.47;2.53;;;;;;;;;;4996765;28;20462;-57
2021/06/08 03:27:31;;;;;;;7.00;3.23;;;;;;;;;;4996716;28;20489;-57
2021/06/08 03:30:01;;;;;;;7.13;3.40;;;;;;;;;;4978382;28;20482;-57
2021/06/08 03:32:29;;;;;;;5.10;3.27;;;;;;;;;;4996595;28;20037;-57
2021/06/08 03:34:57;;;;;;;5.67;3.10;;;;;;;;;;4995827;28;20034;-57
2021/06/08 03:37:25;;;;;;;5.77;3.43;;;;;;;;;;4996503;28;20485;-57
2021/06/08 03:39:53;;;;;;;7.13;3.80;;;;;;;;;;4995819;28;20512;-57
2021/06/08 03:42:21;;;;;;;4.97;3.03;;;;;;;;;;4977734;28;20541;-57
2021/06/08 03:44:48;;;;;;;7.47;3.50;;;;;;;;;;4996315;28;20469;-57
2021/06/08 03:47:18;;;;;;;7.07;3.23;;;;;;;;;;4996384;28;20474;-57
2021/06/08 03:49:48;;;;;;;9.17;3.40;;;;;;;;;;4997593;28;20524;-57
2021/06/08 03:52:15;;;;;;;9.50;4.50;;;;;;;;;;4995948;28;20493;-57
2021/06/08 03:54:42;;;;;;;5.03;3.20;;;;;;;;;;4996274;28;20022;-57
2021/06/08 03:57:10;;;;;;;5.57;3.50;;;;;;;;;;4995895;28;20105;-57
2021/06/08 03:59:39;;;;;;;4.30;2.90;;;;;;;;;;4995810;28;20377;-57
2021/06/08 04:02:07;;;;;;;5.47;3.60;;;;;;;;;;4995833;28;20484;-57
2021/06/08 04:04:35;;;;;;;4.17;3.00;;;;;;;;;;4995962;28;20014;-57
2021/06/08 04:07:02;;;;;;;5.47;3.00;;;;;;;;;;4995778;28;20489;-57
2021/06/08 04:09:29;;;;;;;5.80;3.20;;;;;;;;;;4995852;28;20488;-57
2021/06/08 04:11:56;;;;;;;5.73;3.40;;;;;;;;;;4996114;28;20473;-57
2021/06/08 04:14:24;;;;;;;4.73;3.20;;;;;;;;;;4996099;28;20034;-57
2021/06/08 04:16:51;;;;;;;10.63;3.33;;;;;;;;;;4977096;28;20511;-57
2021/06/08 04:19:19;;;;;;;4.90;3.07;;;;;;;;;;4995015;28;20113;-57
2021/06/08 04:21:51;;;;;;;6.10;3.17;;;;;;;;;;4995003;28;20493;-57
2021/06/08 04:24:18;;;;;;;7.10;3.33;;;;;;;;;;4995746;28;20478;-57
2021/06/08 04:26:46;;;;;;;7.60;3.67;;;;;;;;;;4995660;28;20073;-57
2021/06/08 04:29:13;;;;;;;5.23;3.53;;;;;;;;;;4996153;28;20478;-57
2021/06/08 04:31:40;;;;;;;5.67;3.27;;;;;;;;;;4995501;28;20533;-57
2021/06/08 04:34:07;;;;;;;4.83;3.90;;;;;;;;;;4995499;28;20493;-56
2021/06/08 04:36:35;;;;;;;5.83;3.70;;;;;;;;;;4994746;28;20043;-57
2021/06/08 04:39:02;;;;;;;6.63;3.97;;;;;;;;;;4995652;28;20035;-56
2021/06/08 04:41:29;;;;;;;6.47;3.33;;;;;;;;;;4994619;28;20042;-56
2021/06/08 04:43:56;;;;;;;6.97;3.43;;;;;;;;;;4995326;28;20492;-56
2021/06/08 04:46:23;;;;;;;6.93;3.70;;;;;;;;;;4995600;28;20525;-56
2021/06/08 04:48:50;;;;;;;9.27;3.77;;;;;;;;;;4997096;28;20074;-56
2021/06/08 04:51:17;;;;;;;5.17;3.27;;;;;;;;;;4995056;28;20477;-56
2021/06/08 04:53:46;;;;;;;7.33;3.30;;;;;;;;;;4995135;28;20488;-56
2021/06/08 04:56:14;;;;;;;5.43;3.60;;;;;;;;;;4995098;28;20484;-57
2021/06/08 04:58:43;;;;;;;7.07;4.00;;;;;;;;;;4995104;28;20497;-56
2021/06/08 05:01:10;;;;;;;4.63;3.40;;;;;;;;;;4977740;28;20589;-56
2021/06/08 05:03:41;;;;;;;5.63;3.87;;;;;;;;;;4994928;28;20474;-57
2021/06/08 05:06:16;;;;;;;5.83;3.87;;;;;;;;;;4994947;28;20545;-57
2021/06/08 05:08:50;;;;;;;9.17;3.43;;;;;;;;;;4994784;28;20034;-56
2021/06/08 05:11:20;;;;;;;8.03;3.77;;;;;;;;;;4994981;28;20481;-57
2021/06/08 05:13:48;;;;;;;5.27;3.30;;;;;;;;;;4994777;28;20500;-57
2021/06/08 05:16:16;;;;;;;8.33;3.03;;;;;;;;;;4994662;28;20106;-56
2021/06/08 05:18:44;;;;;;;5.27;3.47;;;;;;;;;;4994571;28;20486;-56
2021/06/08 05:21:13;;;;;;;7.67;4.27;;;;;;;;;;4995027;28;20471;-56
2021/06/08 05:23:41;;;;;;;15.53;6.33;;;;;;;;;;4994664;28;20023;-56
2021/06/08 05:26:08;;;;;;;10.80;4.00;;;;;;;;;;4993562;28;20486;-56
2021/06/08 05:28:36;;;;;;;6.43;3.73;;;;;;;;;;4994097;28;20477;-56
2021/06/08 05:31:03;;;;;;;5.73;3.50;;;;;;;;;;4994148;28;20527;-57
2021/06/08 05:33:32;;;;;;;5.37;3.87;;;;;;;;;;4993429;28;20027;-56
2021/06/08 05:36:01;;;;;;;7.70;4.17;;;;;;;;;;4994157;28;20465;-56
2021/06/08 05:38:34;;;;;;;5.97;3.23;;;;;;;;;;4994391;28;20101;-56
2021/06/08 05:41:05;;;;;;;6.90;4.40;;;;;;;;;;4994219;28;20470;-56
2021/06/08 05:43:33;;;;;;;5.30;3.43;;;;;;;;;;4994321;28;20493;-56
2021/06/08 05:46:00;;;;;;;5.47;3.67;;;;;;;;;;4994414;28;20473;-56
2021/06/08 05:48:27;;;;;;;6.43;2.77;;;;;;;;;;4994399;28;20565;-56
2021/06/08 05:50:56;;;;;;;4.93;3.20;;;;;;;;;;4993745;28;20504;-56
2021/06/08 05:53:24;;;;;;;6.27;3.57;;;;;;;;;;4994207;28;20123;-56
2021/06/08 05:55:53;;;;;;;6.47;3.97;;;;;;;;;;4994279;28;20049;-56
2021/06/08 05:58:26;;;;;;;6.87;4.07;;;;;;;;;;4993371;28;20529;-56
2021/06/08 06:00:54;;;;;;;4.00;2.93;;;;;;;;;;4976557;28;20049;-56
2021/06/08 06:03:23;;;;;;;6.77;3.17;;;;;;;;;;4993857;28;20027;-56
2021/06/08 06:05:50;;;;;;;8.13;4.20;;;;;;;;;;4993612;28;20042;-56
2021/06/08 06:08:17;;;;;;;5.00;3.80;;;;;;;;;;4993852;28;20031;-56
2021/06/08 06:10:44;;;;;;;9.63;4.20;;;;;;;;;;4993559;28;20492;-56
2021/06/08 06:13:15;;;;;;;10.50;3.90;;;;;;;;;;4993689;28;20489;-56
2021/06/08 06:15:46;;;;;;;6.27;3.27;;;;;;;;;;4993821;28;20073;-56
2021/06/08 06:18:18;;;;;;;8.47;3.30;;;;;;;;;;4993780;28;20030;-56
2021/06/08 06:20:46;;;;;;;8.43;4.33;;;;;;;;;;4993435;28;20482;-56
2021/06/08 06:23:16;;;;;;;6.33;3.90;;;;;;;;;;4993769;28;20556;-56
2021/06/08 06:26:00;;;;;;;8.53;3.53;;;;;;;;;;4993841;28;20085;-56
2021/06/08 06:28:28;;;;;;;7.33;4.47;;;;;;;;;;4993588;28;20042;-56
2021/06/08 06:30:56;;;;;;;11.70;4.60;;;;;;;;;;4976059;28;22405;-56
2021/06/08 06:33:23;;;;;;;5.47;3.77;;;;;;;;;;4993377;28;20548;-56
2021/06/08 06:35:52;;;;;;;8.17;3.90;;;;;;;;;;4993544;28;20477;-56
2021/06/08 06:38:20;;;;;;;5.93;3.77;;;;;;;;;;4993087;28;20030;-56
2021/06/08 06:40:47;;;;;;;11.07;3.80;;;;;;;;;;4993354;28;20019;-56
2021/06/08 06:43:19;;;;;;;5.50;3.47;;;;;;;;;;4993404;28;20500;-56
2021/06/08 06:45:46;;;;;;;5.27;3.83;;;;;;;;;;4993155;28;20480;-56
2021/06/08 06:48:17;;;;;;;8.63;4.23;;;;;;;;;;4993341;28;20473;-56
2021/06/08 06:50:46;;;;;;;7.53;4.57;;;;;;;;;;4994320;28;20486;-56
2021/06/08 06:53:16;;;;;;;7.37;4.03;;;;;;;;;;4993136;28;20465;-56
2021/06/08 06:55:43;;;;;;;10.63;3.70;;;;;;;;;;4992685;28;20512;-56
2021/06/08 06:58:11;;;;;;;7.00;4.27;;;;;;;;;;4993237;28;20504;-56
2021/06/08 07:00:39;;;;;;;8.90;4.23;;;;;;;;;;4975790;28;20458;-56
2021/06/08 07:03:06;;;;;;;6.27;4.13;;;;;;;;;;4993271;28;20026;-56
2021/06/08 07:05:34;;;;;;;6.17;4.03;;;;;;;;;;4975898;28;20469;-56
2021/06/08 07:08:04;;;;;;;9.93;4.37;;;;;;;;;;4993218;28;20508;-56
2021/06/08 07:10:32;;;;;;;7.33;3.80;;;;;;;;;;4993043;28;20494;-56
2021/06/08 07:13:03;;;;;;;6.80;3.57;;;;;;;;;;4992783;28;20050;-56
2021/06/08 07:15:32;;;;;;;6.23;3.90;;;;;;;;;;4992956;28;20519;-56
2021/06/08 07:18:00;;;;;;;10.90;3.97;;;;;;;;;;4981753;28;20118;-56
2021/06/08 07:20:29;;;;;;;5.20;3.53;;;;;;;;;;4993214;28;20532;-56
2021/06/08 07:23:00;;;;;;;8.27;5.07;;;;;;;;;;4993036;28;20474;-56
2021/06/08 07:25:28;;;;;;;7.33;3.90;;;;;;;;;;4993548;28;20049;-56
2021/06/08 07:27:55;;;;;;;5.60;3.67;;;;;;;;;;4993201;28;20026;-56
2021/06/08 07:30:26;;;;;;;6.53;3.87;;;;;;;;;;4993155;28;20477;-56
2021/06/08 07:33:03;;;;;;;6.13;3.90;;;;;;;;;;4992868;28;20105;-56
2021/06/08 07:35:40;;;;;;;5.93;4.17;;;;;;;;;;4992984;28;20034;-56
2021/06/08 07:38:11;;;;;;;9.43;4.00;;;;;;;;;;4992678;28;20473;-56
2021/06/08 07:40:43;;;;;;;7.47;4.67;;;;;;;;;;4992240;28;20481;-56
2021/06/08 07:43:13;;;;;;;7.07;4.90;;;;;;;;;;4992777;28;20504;-56
2021/06/08 07:45:50;;;;;;;6.00;4.10;;;;;;;;;;4991707;28;20509;-56
2021/06/08 07:48:25;;;;;;;8.53;4.10;;;;;;;;;;4992694;28;20481;-56
2021/06/08 07:50:54;;;;;;;6.47;3.95;;;;;;;;;;4994357;28;20197;-56
2021/06/08 07:53:22;;;;;;;5.50;4.13;;;;;;;;;;4992684;28;20477;-56
2021/06/08 07:55:51;;;;;;;9.10;4.10;;;;;;;;;;4992664;28;20485;-56
2021/06/08 07:58:25;;;;;;;8.07;4.13;;;;;;;;;;4995378;28;20528;-56
2021/06/08 08:00:53;;;;;;;8.18;3.90;;;;;;;;;;4996037;28;20490;-56
2021/06/08 08:03:27;;;;;;;5.40;3.90;;;;;;;;;;4996438;28;20501;-56
2021/06/08 08:05:55;;;;;;;6.43;3.90;;;;;;;;;;4996067;28;20481;-56
2021/06/08 08:08:22;;;;;;;8.10;4.07;;;;;;;;;;4996307;28;20551;-56
2021/06/08 08:10:50;;;;;;;6.83;4.10;;;;;;;;;;4995754;28;20477;-56
2021/06/08 08:13:21;;;;;;;6.53;4.87;;;;;;;;;;4995989;28;20034;-56
2021/06/08 08:15:49;;;;;;;8.77;4.80;;;;;;;;;;4995763;28;20484;-56
2021/06/08 08:18:16;;;;;;;7.93;4.60;;;;;;;;;;4996089;28;20465;-56
2021/06/08 08:20:51;;;;;;;6.27;4.27;;;;;;;;;;4995628;28;20504;-56
2021/06/08 08:23:19;;;;;;;8.73;4.53;;;;;;;;;;4994813;28;20587;-56
2021/06/08 08:25:47;;;;;;;9.70;4.60;;;;;;;;;;4995616;28;20511;-56
2021/06/08 08:28:15;;;;;;;6.13;4.30;;;;;;;;;;4995913;28;20481;-56
2021/06/08 08:30:42;;;;;;;7.03;4.30;;;;;;;;;;4995470;28;20552;-56
2021/06/08 08:33:09;;;;;;;14.77;4.90;;;;;;;;;;4995561;28;20030;-56
2021/06/08 08:35:38;;;;;;;7.53;4.53;;;;;;;;;;4995759;28;20496;-56
2021/06/08 08:38:05;;;;;;;9.67;5.20;;;;;;;;;;4995321;28;20470;-56
2021/06/08 08:40:32;;;;;;;7.00;4.73;;;;;;;;;;4995377;28;20041;-56
2021/06/08 08:43:02;;;;;;;7.97;4.87;;;;;;;;;;4978209;28;20469;-56
2021/06/08 08:45:30;;;;;;;8.43;4.47;;;;;;;;;;4995508;28;20031;-56
2021/06/08 08:47:58;;;;;;;7.77;4.53;;;;;;;;;;4995277;28;20481;-56
2021/06/08 08:50:38;;;;;;;7.40;3.93;;;;;;;;;;4998284;28;20094;-56
2021/06/08 08:53:06;;;;;;;7.53;4.23;;;;;;;;;;4995139;28;20049;-56
2021/06/08 08:55:35;;;;;;;8.23;3.87;;;;;;;;;;4995130;28;20461;-56
2021/06/08 08:58:03;;;;;;;6.90;4.63;;;;;;;;;;4995165;28;20484;-56
2021/06/08 09:00:31;;;;;;;6.60;4.30;;;;;;;;;;4995003;28;20492;-56
2021/06/08 09:03:01;;;;;;;5.77;3.90;;;;;;;;;;4995053;28;20477;-56
2021/06/08 09:05:34;;;;;;;5.80;3.87;;;;;;;;;;4994971;28;20491;-56
2021/06/08 09:08:02;;;;;;;5.53;3.63;;;;;;;;;;4994187;28;20489;-56
2021/06/08 09:10:29;;;;;;;9.87;4.03;;;;;;;;;;4993946;28;20046;-56
2021/06/08 09:12:57;;;;;;;6.47;4.00;;;;;;;;;;4994620;28;20478;-56
2021/06/08 09:15:24;;;;;;;6.90;4.60;;;;;;;;;;4994699;28;20034;-56
2021/06/08 09:17:58;;;;;;;11.93;4.73;;;;;;;;;;4994689;28;20503;-56
2021/06/08 09:20:26;;;;;;;7.47;4.27;;;;;;;;;;4994019;28;20039;-56
2021/06/08 09:22:55;;;;;;;9.40;4.80;;;;;;;;;;4993821;28;20125;-56
2021/06/08 09:25:40;;;;;;;6.87;4.53;;;;;;;;;;4994652;28;20026;-56
2021/06/08 09:28:14;;;;;;;12.13;6.38;;;;;;;;;;4994493;28;20465;-56
2021/06/08 09:30:41;;;;;;;9.47;5.03;;;;;;;;;;4994234;28;20034;-56
2021/06/08 09:33:25;;;;;;;6.60;4.30;;;;;;;;;;4994380;28;20061;-56
2021/06/08 09:35:54;;;;;;;6.70;4.23;;;;;;;;;;4994444;28;20501;-56
2021/06/08 09:38:21;;;;;;;7.73;4.70;;;;;;;;;;4994600;28;20513;-56
2021/06/08 09:40:50;;;;;;;7.60;4.53;;;;;;;;;;4994250;28;20470;-56
2021/06/08 09:43:18;;;;;;;6.73;4.10;;;;;;;;;;4994219;28;20474;-56
2021/06/08 09:45:47;;;;;;;7.90;4.77;;;;;;;;;;4994160;28;20505;-56
2021/06/08 09:48:18;;;;;;;8.30;4.37;;;;;;;;;;4976877;28;20504;-56
2021/06/08 09:50:49;;;;;;;6.93;3.90;;;;;;;;;;4995643;28;20580;-56
2021/06/08 09:53:21;;;;;;;;;;;;;;;;;;4994503;28;20554;-56
2021/06/08 09:55:49;;;;;;;6.57;3.37;;;;;;;;;;4993958;28;20249;-56
2021/06/08 09:58:17;;;;;;;5.50;3.43;;;;;;;;;;4994018;28;20485;-56
2021/06/08 10:00:44;;;;;;;9.97;4.20;;;;;;;;;;4992785;28;20523;-56
2021/06/08 10:03:11;;;;;;;7.63;4.03;;;;;;;;;;4993848;28;20490;-56
2021/06/08 10:05:39;;;;;;;5.90;3.73;;;;;;;;;;4993753;28;20019;-56
2021/06/08 10:08:07;;;;;;;5.03;3.63;;;;;;;;;;4992810;28;20513;-56
2021/06/08 10:10:39;;;;;;;7.23;4.27;;;;;;;;;;4993705;28;20029;-56
2021/06/08 10:13:14;;;;;;;5.37;3.93;;;;;;;;;;4993620;28;20481;-56
2021/06/08 10:15:51;;;;;;;5.10;3.72;;;;;;;;;;4993736;28;20495;-56
2021/06/08 10:18:19;;;;;;;6.27;4.43;;;;;;;;;;4993680;28;20536;-56
2021/06/08 10:20:58;;;;;;;5.83;4.20;;;;;;;;;;4993187;28;20462;-56
2021/06/08 10:23:30;;;;;;;6.77;3.67;;;;;;;;;;4976450;28;20040;-56
2021/06/08 10:25:58;;;;;;;5.80;4.20;;;;;;;;;;4993639;28;20027;-56
2021/06/08 10:28:26;;;;;;;8.00;4.60;;;;;;;;;;4993479;28;20485;-56
2021/06/08 10:30:53;;;;;;;8.30;4.70;;;;;;;;;;4993324;28;20062;-56
2021/06/08 10:33:22;;;;;;;12.50;5.00;;;;;;;;;;4993368;28;20481;-56
2021/06/08 10:35:50;;;;;;;6.47;3.67;;;;;;;;;;4993302;28;20105;-56
2021/06/08 10:38:18;;;;;;;6.30;4.43;;;;;;;;;;4993465;28;20033;-56
2021/06/08 10:40:53;;;;;;;5.80;3.83;;;;;;;;;;4976689;28;20481;-56
2021/06/08 10:43:22;;;;;;;5.67;4.07;;;;;;;;;;4993430;28;20489;-56
2021/06/08 10:45:52;;;;;;;5.60;3.70;;;;;;;;;;4993316;28;20496;-56
2021/06/08 10:48:21;;;;;;;6.33;3.90;;;;;;;;;;4993297;28;20026;-56
2021/06/08 10:50:50;;;;;;;6.30;4.10;;;;;;;;;;4994310;28;20493;-56
2021/06/08 10:53:27;;;;;;;9.33;4.57;;;;;;;;;;4993252;28;20485;-56
2021/06/08 10:55:54;;;;;;;6.37;3.77;;;;;;;;;;4992681;28;20504;-56
2021/06/08 10:58:42;;;;;;;5.37;3.80;;;;;;;;;;4993246;28;20511;-56
2021/06/08 11:01:28;;;;;;;7.13;4.33;;;;;;;;;;4992246;28;20490;-56
2021/06/08 11:03:56;;;;;;;6.80;4.73;;;;;;;;;;4993046;28;20537;-56
2021/06/08 11:06:38;;;;;;;5.83;4.00;;;;;;;;;;4993256;28;20536;-56
2021/06/08 11:09:12;;;;;;;5.20;3.57;;;;;;;;;;4993215;28;20473;-55
2021/06/08 11:11:44;;;;;;;6.33;4.10;;;;;;;;;;4992053;28;20544;-56
2021/06/08 11:17:04;;;;;;;6.53;4.27;;;;;;;;;;4979023;28;20029;-57
2021/06/08 11:19:50;;;;;;;6.17;3.77;;;;;;;;;;4992969;28;20477;-56
2021/06/08 11:22:19;;;;;;;7.10;3.83;;;;;;;;;;4993104;28;20030;-56
2021/06/08 11:24:47;;;;;;;9.77;4.60;;;;;;;;;;4993058;28;20015;-57
2021/06/08 11:27:17;;;;;;;7.83;4.03;;;;;;;;;;4992990;28;20470;-56
2021/06/08 11:29:49;;;;;;;8.07;5.07;;;;;;;;;;4992317;28;20517;-57
2021/06/08 11:32:32;;;;;;;7.97;5.17;;;;;;;;;;4995771;28;20473;-56
2021/06/08 11:35:09;;;;;;;7.20;4.47;;;;;;;;;;4996673;28;20073;-56
2021/06/08 11:37:51;;;;;;;7.70;4.60;;;;;;;;;;4996567;28;20527;-56
2021/06/08 11:40:39;;;;;;;9.40;5.07;;;;;;;;;;4996503;28;20478;-56
2021/06/08 11:43:08;;;;;;;8.13;4.80;;;;;;;;;;4996604;28;20030;-56
2021/06/08 11:45:36;;;;;;;7.77;4.80;;;;;;;;;;4996528;28;20097;-56
2021/06/08 11:48:04;;;;;;;7.10;4.23;;;;;;;;;;4996652;28;20602;-56
2021/06/08 11:50:38;;;;;;;7.33;4.87;;;;;;;;;;4997994;28;20524;-57
2021/06/08 11:53:06;;;;;;;6.53;4.65;;;;;;;;;;4995366;28;20137;-56
2021/06/08 11:55:34;;;;;;;7.37;4.70;;;;;;;;;;4995439;28;20109;-56
2021/06/08 11:58:02;;;;;;;6.87;4.83;;;;;;;;;;4979186;28;20553;-57
2021/06/08 12:00:54;;;;;;;6.47;4.47;;;;;;;;;;4996033;28;20473;-57
2021/06/08 12:03:35;;;;;;;10.27;5.50;;;;;;;;;;4996148;28;20022;-56
2021/06/08 12:06:04;;;;;;;7.57;4.97;;;;;;;;;;4996140;28;20485;-56
2021/06/08 12:08:33;;;;;;;6.93;4.80;;;;;;;;;;4996049;28;20049;-56
2021/06/08 12:11:20;;;;;;;8.67;4.53;;;;;;;;;;4996154;28;20481;-57
2021/06/08 12:13:48;;;;;;;7.60;3.83;;;;;;;;;;4995933;28;20482;-57
2021/06/08 12:16:16;;;;;;;9.17;4.33;;;;;;;;;;4995942;28;20509;-55
2021/06/08 12:18:46;;;;;;;9.83;5.17;;;;;;;;;;4995853;28;20539;-55
2021/06/08 12:21:14;;;;;;;9.53;4.70;;;;;;;;;;4996065;28;20508;-57
2021/06/08 12:23:42;;;;;;;7.77;4.50;;;;;;;;;;4995904;28;20520;-56
2021/06/08 12:26:25;;;;;;;7.03;4.53;;;;;;;;;;4995756;28;20477;-56
2021/06/08 12:29:07;;;;;;;8.43;4.83;;;;;;;;;;4995650;28;20057;-57
2021/06/08 12:31:35;;;;;;;7.00;4.43;;;;;;;;;;4995461;28;20046;-57
2021/06/08 12:34:13;;;;;;;11.10;4.83;;;;;;;;;;4995450;28;20463;-57
2021/06/08 12:36:44;;;;;;;6.47;4.37;;;;;;;;;;4995536;28;20533;-56
2021/06/08 12:39:13;;;;;;;9.20;5.27;;;;;;;;;;4995283;28;20565;-55
2021/06/08 12:41:40;;;;;;;6.07;4.33;;;;;;;;;;4994955;28;20499;-56
2021/06/08 12:44:09;;;;;;;12.53;4.37;;;;;;;;;;4994656;28;20485;-57
2021/06/08 12:46:37;;;;;;;7.00;4.57;;;;;;;;;;4995608;28;20088;-57
2021/06/08 12:49:07;;;;;;;9.10;5.13;;;;;;;;;;4994313;28;20485;-58
2021/06/08 12:51:51;;;;;;;7.53;4.77;;;;;;;;;;4995737;28;20485;-57
2021/06/08 12:54:35;;;;;;;7.80;4.67;;;;;;;;;;4995124;28;20527;-57
2021/06/08 12:57:10;;;;;;;9.27;5.13;;;;;;;;;;4995187;28;20022;-58
2021/06/08 12:59:38;;;;;;;;;;;;;;;;;;4995526;28;20026;-56
2021/06/08 13:02:09;;;;;;;12.47;5.43;;;;;;;;;;4994876;28;20288;-56
2021/06/08 13:04:58;;;;;;;7.77;5.20;;;;;;;;;;4995307;28;20026;-56
2021/06/08 13:07:35;;;;;;;7.83;4.50;;;;;;;;;;4994851;28;20485;-57
2021/06/08 13:10:06;;;;;;;10.67;5.67;;;;;;;;;;4994207;28;20480;-57
2021/06/08 13:12:40;;;;;;;10.33;6.70;;;;;;;;;;4994795;28;20497;-58
2021/06/08 13:15:11;;;;;;;12.50;6.83;;;;;;;;;;4994904;28;20469;-58
2021/06/08 13:17:48;;;;;;;11.63;7.37;;;;;;;;;;4994385;28;20532;-58
2021/06/08 13:20:23;;;;;;;13.87;7.43;;;;;;;;;;4994809;28;20473;-58
2021/06/08 13:22:52;;;;;;;13.98;7.32;;;;;;;;;;4994597;28;20497;-57
2021/06/08 13:25:25;;;;;;;9.80;6.63;;;;;;;;;;4992996;28;20548;-58
2021/06/08 13:28:16;;;;;;;9.10;6.27;;;;;;;;;;4994485;28;20536;-58
2021/06/08 13:30:44;;;;;;;9.27;6.80;;;;;;;;;;4994410;28;20030;-58
2021/06/08 13:33:16;;;;;;;10.43;6.97;;;;;;;;;;4994368;28;20560;-58
2021/06/08 13:35:52;;;;;;;11.97;7.70;;;;;;;;;;4994584;28;20472;-58
2021/06/08 13:38:22;;;;;;;10.90;7.70;;;;;;;;;;4994190;28;20413;-57
2021/06/08 13:40:50;;;;;;;9.97;6.70;;;;;;;;;;4994214;28;20141;-58
2021/06/08 13:43:18;;;;;;;11.43;6.97;;;;;;;;;;4993480;28;20612;-56
2021/06/08 13:45:50;;;;;;;14.67;7.53;;;;;;;;;;4976892;28;20466;-57
2021/06/08 13:48:18;;;;;;;9.30;6.73;;;;;;;;;;4976945;28;20504;-58
2021/06/08 13:50:46;;;;;;;12.17;7.47;;;;;;;;;;4995144;28;20489;-58
2021/06/08 13:53:23;;;;;;;13.80;7.30;;;;;;;;;;4976511;28;20046;-57
2021/06/08 13:56:04;;;;;;;13.13;7.20;;;;;;;;;;4993266;28;20485;-58
2021/06/08 14:01:26;;;;;;;12.20;7.47;;;;;;;;;;4994333;28;20038;-58
2021/06/08 14:04:01;;;;;;;14.43;7.80;;;;;;;;;;4993910;28;20034;-58
2021/06/08 14:06:28;;;;;;;12.48;7.82;;;;;;;;;;4994052;28;20027;-58
2021/06/08 14:08:56;;;;;;;8.73;6.60;;;;;;;;;;4993378;28;20493;-58
2021/06/08 14:11:42;;;;;;;11.83;7.80;;;;;;;;;;4994010;28;20477;-58
2021/06/08 14:14:14;;;;;;;12.93;8.90;;;;;;;;;;4993922;28;20105;-58
2021/06/08 14:16:43;;;;;;;13.60;8.97;;;;;;;;;;4992695;28;20500;-58
2021/06/08 14:19:11;;;;;;;17.23;9.07;;;;;;;;;;4993598;28;20465;-58
2021/06/08 14:21:38;;;;;;;10.13;8.17;;;;;;;;;;4992710;28;20489;-58
2021/06/08 14:24:07;;;;;;;13.23;7.30;;;;;;;;;;4994142;28;20032;-58
2021/06/08 14:26:38;;;;;;;11.47;7.93;;;;;;;;;;4993498;28;20537;-58
2021/06/08 14:29:07;;;;;;;12.13;7.20;;;;;;;;;;4992825;28;20538;-58
2021/06/08 14:31:35;;;;;;;8.93;6.20;;;;;;;;;;4993303;28;20556;-58
2021/06/08 14:34:02;;;;;;;9.07;6.00;;;;;;;;;;4992742;28;20093;-58
2021/06/08 14:36:29;;;;;;;9.40;5.73;;;;;;;;;;4993446;28;20473;-58
2021/06/08 14:38:59;;;;;;;6.43;5.43;;;;;;;;;;4993376;28;20043;-58
2021/06/08 14:41:27;;;;;;;7.80;5.63;;;;;;;;;;4992555;28;20489;-58
2021/06/08 14:43:55;;;;;;;10.33;5.43;;;;;;;;;;4993496;28;20038;-57
2021/06/08 14:46:26;;;;;;;8.63;5.33;;;;;;;;;;4992524;28;20523;-58
2021/06/08 14:48:55;;;;;;;7.60;5.33;;;;;;;;;;4993226;28;20516;-58
2021/06/08 14:51:25;;;;;;;9.53;5.10;;;;;;;;;;4994349;28;20050;-58
2021/06/08 14:53:53;;;;;;;7.40;5.17;;;;;;;;;;4993327;28;20023;-58
2021/06/08 14:56:20;;;;;;;11.93;5.57;;;;;;;;;;4993315;28;20058;-58
2021/06/08 14:58:47;;;;;;;7.10;4.90;;;;;;;;;;4993201;28;20064;-58
2021/06/08 15:01:16;;;;;;;11.00;4.43;;;;;;;;;;4993250;28;20023;-58
2021/06/08 15:03:45;;;;;;;6.23;4.90;;;;;;;;;;4993208;28;20470;-58
2021/06/08 15:06:12;;;;;;;6.60;4.63;;;;;;;;;;4993271;28;20034;-58
2021/06/08 15:08:41;;;;;;;6.83;4.43;;;;;;;;;;4997135;28;20495;-58
2021/06/08 15:11:08;;;;;;;9.47;5.17;;;;;;;;;;4985903;28;20073;-58
2021/06/08 15:13:35;;;;;;;6.50;5.30;;;;;;;;;;4997122;28;20030;-58